createdAt,value
2023-11-15T00:01:15.563Z,74.30
2023-11-15T00:03:43.201Z,74.17
2023-11-15T00:06:11.435Z,73.56
2023-11-15T00:08:39.245Z,73.78
2023-11-15T00:11:07.456Z,73.68
2023-11-15T00:13:35.664Z,73.50
2023-11-15T00:16:05.672Z,73.82
2023-11-15T00:18:33.535Z,72.84
2023-11-15T00:21:01.253Z,73.60
2023-11-15T00:23:28.946Z,73.56
2023-11-15T00:25:56.547Z,73.55
2023-11-15T00:28:24.197Z,73.54
2023-11-15T00:30:51.767Z,73.58
2023-11-15T00:33:20.858Z,73.48
2023-11-15T00:35:48.682Z,73.54
2023-11-15T00:38:16.474Z,73.70
2023-11-15T00:40:44.247Z,73.26
2023-11-15T00:43:11.841Z,73.32
2023-11-15T00:45:39.490Z,73.34
2023-11-15T00:48:07.467Z,73.61
2023-11-15T00:50:36.512Z,73.53
2023-11-15T00:53:05.928Z,73.69
2023-11-15T00:55:33.506Z,73.68
2023-11-15T00:58:01.298Z,73.74
2023-11-15T01:00:33.650Z,73.89
2023-11-15T01:03:02.527Z,73.92
2023-11-15T01:05:30.747Z,73.73
2023-11-15T01:07:59.877Z,73.76
2023-11-15T01:10:27.526Z,73.38
2023-11-15T01:12:55.705Z,73.65
2023-11-15T01:15:24.070Z,73.59
2023-11-15T01:17:51.866Z,73.80
2023-11-15T01:20:19.897Z,73.42
2023-11-15T01:22:47.647Z,73.52
2023-11-15T01:25:16.724Z,73.73
2023-11-15T01:27:44.325Z,73.75
2023-11-15T01:30:12.688Z,73.39
2023-11-15T01:32:40.348Z,72.89
2023-11-15T01:35:09.099Z,72.96
2023-11-15T01:37:36.738Z,72.92
2023-11-15T01:40:07.626Z,73.09
2023-11-15T01:42:36.774Z,73.02
2023-11-15T01:45:04.886Z,73.26
2023-11-15T01:47:32.919Z,73.91
2023-11-15T01:50:03.560Z,73.96
2023-11-15T01:52:31.154Z,74.80
2023-11-15T01:54:59.817Z,74.85
2023-11-15T01:57:27.514Z,74.99
2023-11-15T01:59:57.022Z,75.48
2023-11-15T02:02:24.768Z,75.36
2023-11-15T02:04:52.346Z,75.24
2023-11-15T02:07:20.224Z,75.35
2023-11-15T02:09:47.917Z,75.94
2023-11-15T02:12:15.540Z,76.97
2023-11-15T02:14:43.318Z,76.49
2023-11-15T02:17:12.609Z,75.74
2023-11-15T02:19:40.232Z,75.56
2023-11-15T02:22:07.839Z,75.12
2023-11-15T02:24:38.398Z,75.00
2023-11-15T02:27:06.431Z,75.74
2023-11-15T02:29:34.078Z,75.81
2023-11-15T02:32:01.635Z,75.22
2023-11-15T02:34:29.173Z,75.51
2023-11-15T02:36:56.814Z,75.43
2023-11-15T02:39:24.425Z,75.25
2023-11-15T02:41:53.424Z,75.56
2023-11-15T02:44:21.004Z,76.05
2023-11-15T02:46:48.624Z,76.47
2023-11-15T02:49:16.262Z,76.97
2023-11-15T02:51:43.858Z,76.34
2023-11-15T02:54:11.390Z,76.15
2023-11-15T02:56:38.951Z,76.50
2023-11-15T02:59:07.862Z,76.92
2023-11-15T03:01:35.600Z,76.88
2023-11-15T03:04:03.648Z,77.00
2023-11-15T03:06:31.259Z,76.62
2023-11-15T03:08:58.859Z,76.51
2023-11-15T03:11:26.604Z,76.24
2023-11-15T03:13:54.308Z,75.67
2023-11-15T03:16:23.310Z,75.77
2023-11-15T03:18:51.180Z,75.56
2023-11-15T03:21:18.759Z,75.42
2023-11-15T03:23:46.368Z,75.72
2023-11-15T03:26:13.945Z,75.19
2023-11-15T03:28:41.530Z,75.45
2023-11-15T03:31:11.462Z,75.45
2023-11-15T03:33:40.548Z,75.53
2023-11-15T03:36:10.135Z,75.27
2023-11-15T03:38:38.310Z,76.04
2023-11-15T03:41:06.858Z,75.96
2023-11-15T03:43:34.506Z,76.38
2023-11-15T03:46:02.105Z,76.46
2023-11-15T03:48:30.752Z,76.78
2023-11-15T03:50:59.857Z,77.14
2023-11-15T03:53:27.521Z,76.97
2023-11-15T03:55:55.131Z,76.98
2023-11-15T03:58:22.673Z,77.01
2023-11-15T04:00:50.270Z,77.43
2023-11-15T04:03:22.578Z,77.58
2023-11-15T04:05:51.169Z,77.49
2023-11-15T04:08:20.469Z,77.55
2023-11-15T04:10:49.634Z,78.08
2023-11-15T04:13:18.762Z,86.54
2023-11-15T04:15:46.450Z,82.29
2023-11-15T04:18:14.260Z,78.41
2023-11-15T04:20:41.924Z,73.25
2023-11-15T04:23:09.625Z,71.49
2023-11-15T04:25:38.556Z,73.88
2023-11-15T04:28:07.100Z,71.88
2023-11-15T04:30:34.709Z,69.28
2023-11-15T04:33:02.352Z,72.80
2023-11-15T04:35:30.177Z,69.04
2023-11-15T04:37:57.867Z,72.66
2023-11-15T04:40:27.075Z,70.12
2023-11-15T04:42:56.011Z,71.16
2023-11-15T04:45:23.586Z,70.53
2023-11-15T04:47:51.424Z,66.24
2023-11-15T04:50:19.059Z,68.83
2023-11-15T04:52:46.730Z,66.76
2023-11-15T04:55:14.426Z,65.88
2023-11-15T04:57:42.165Z,64.48
2023-11-15T05:00:12.708Z,64.56
2023-11-15T05:02:40.615Z,66.00
2023-11-15T05:05:08.602Z,63.97
2023-11-15T05:07:38.001Z,65.35
2023-11-15T05:10:06.224Z,65.16
2023-11-15T05:12:33.909Z,67.06
2023-11-15T05:15:01.579Z,66.90
2023-11-15T05:17:30.758Z,65.49
2023-11-15T05:19:58.346Z,65.45
2023-11-15T05:22:25.908Z,64.03
2023-11-15T05:24:55.330Z,64.97
2023-11-15T05:27:24.093Z,67.67
2023-11-15T05:29:51.851Z,69.25
2023-11-15T05:32:19.606Z,70.96
2023-11-15T05:34:48.602Z,72.04
2023-11-15T05:37:16.285Z,73.67
2023-11-15T05:39:44.960Z,74.58
2023-11-15T05:42:12.531Z,74.74
2023-11-15T05:44:40.485Z,75.39
2023-11-15T05:47:08.166Z,75.28
2023-11-15T05:49:35.929Z,75.57
2023-11-15T05:52:05.757Z,76.86
2023-11-15T05:54:33.381Z,77.49
2023-11-15T05:57:01.138Z,77.49
2023-11-15T05:59:28.834Z,77.28
2023-11-15T06:01:56.623Z,77.72
2023-11-15T06:04:24.375Z,77.26
2023-11-15T06:06:52.154Z,77.76
2023-11-15T06:09:22.323Z,77.98
2023-11-15T06:11:50.010Z,78.10
2023-11-15T06:14:18.403Z,78.09
2023-11-15T06:16:46.036Z,78.81
2023-11-15T06:19:13.642Z,78.92
2023-11-15T06:21:44.116Z,78.66
2023-11-15T06:24:13.986Z,78.99
2023-11-15T06:26:45.443Z,78.59
2023-11-15T06:29:13.141Z,78.96
2023-11-15T06:31:40.728Z,78.61
2023-11-15T06:34:10.198Z,78.59
2023-11-15T06:36:42.217Z,78.96
2023-11-15T06:39:13.212Z,79.15
2023-11-15T06:41:41.192Z,79.22
2023-11-15T06:44:11.511Z,78.50
2023-11-15T06:46:39.971Z,78.23
2023-11-15T06:49:11.668Z,78.08
2023-11-15T06:51:39.617Z,77.58
2023-11-15T06:54:08.111Z,78.35
2023-11-15T06:56:35.848Z,78.50
2023-11-15T06:59:03.710Z,79.04
2023-11-15T07:01:32.796Z,78.88
2023-11-15T07:04:00.531Z,78.67
2023-11-15T07:06:28.655Z,79.11
2023-11-15T07:08:57.672Z,78.94
2023-11-15T07:11:26.099Z,78.58
2023-11-15T07:13:54.915Z,78.36
2023-11-15T07:16:22.758Z,77.85
2023-11-15T07:18:51.833Z,78.34
2023-11-15T07:21:20.641Z,78.10
2023-11-15T07:23:49.236Z,76.90
2023-11-15T07:26:16.904Z,77.61
2023-11-15T07:28:44.913Z,77.07
2023-11-15T07:31:15.646Z,76.64
2023-11-15T07:33:44.314Z,76.85
2023-11-15T07:36:13.663Z,76.53
2023-11-15T07:38:41.530Z,76.29
2023-11-15T07:41:09.183Z,76.10
2023-11-15T07:43:36.959Z,75.80
2023-11-15T07:46:10.913Z,76.06
2023-11-15T07:48:38.675Z,75.72
2023-11-15T07:51:08.362Z,76.10
2023-11-15T07:53:38.078Z,76.25
2023-11-15T07:56:07.367Z,76.39
2023-11-15T07:58:35.658Z,76.31
2023-11-15T08:01:03.334Z,76.36
2023-11-15T08:03:31.130Z,76.41
2023-11-15T08:05:59.113Z,76.56
2023-11-15T08:08:26.826Z,76.79
2023-11-15T08:10:55.828Z,77.26
2023-11-15T08:13:24.100Z,76.39
2023-11-15T08:15:51.843Z,76.11
2023-11-15T08:18:19.636Z,75.44
2023-11-15T08:20:47.968Z,75.59
2023-11-15T08:23:16.144Z,75.52
2023-11-15T08:25:51.488Z,74.76
2023-11-15T08:28:21.180Z,74.62
2023-11-15T08:30:49.327Z,74.27
2023-11-15T08:33:17.779Z,74.50
2023-11-15T08:35:48.185Z,74.54
2023-11-15T08:38:15.803Z,73.95
2023-11-15T08:40:49.988Z,73.46
2023-11-15T08:43:18.445Z,73.41
2023-11-15T08:45:48.418Z,72.82
2023-11-15T08:48:18.970Z,72.77
2023-11-15T08:50:49.120Z,72.91
2023-11-15T08:53:19.687Z,72.47
2023-11-15T08:55:47.269Z,72.09
2023-11-15T08:58:15.537Z,71.59
2023-11-15T09:00:45.125Z,76.15
2023-11-15T09:03:15.295Z,69.19
2023-11-15T09:05:45.227Z,67.61
2023-11-15T09:08:12.888Z,67.96
2023-11-15T09:10:40.449Z,69.00
2023-11-15T09:13:09.675Z,68.09
2023-11-15T09:15:37.405Z,67.87
2023-11-15T09:18:07.475Z,67.60
2023-11-15T09:20:36.539Z,67.52
2023-11-15T09:23:10.874Z,67.47
2023-11-15T09:25:40.849Z,67.02
2023-11-15T09:28:08.414Z,67.22
2023-11-15T09:30:36.534Z,67.31
2023-11-15T09:33:06.404Z,66.86
2023-11-15T09:35:38.790Z,65.99
2023-11-15T09:38:12.051Z,65.88
2023-11-15T09:40:39.836Z,65.80
2023-11-15T09:43:07.449Z,66.10
2023-11-15T09:45:39.891Z,66.27
2023-11-15T09:48:10.334Z,65.80
2023-11-15T09:50:39.510Z,65.45
2023-11-15T09:53:07.297Z,65.62
2023-11-15T09:55:36.284Z,65.31
2023-11-15T09:58:04.520Z,65.89
2023-11-15T10:00:33.207Z,67.54
2023-11-15T10:03:01.589Z,67.54
2023-11-15T10:05:29.573Z,68.00
2023-11-15T10:08:10.111Z,68.31
2023-11-15T10:10:43.022Z,68.82
2023-11-15T10:13:14.999Z,68.85
2023-11-15T10:15:45.047Z,69.51
2023-11-15T10:18:15.322Z,71.51
2023-11-15T10:20:44.439Z,72.06
2023-11-15T10:23:14.385Z,73.54
2023-11-15T10:25:51.915Z,72.98
2023-11-15T10:28:23.263Z,72.23
2023-11-15T10:31:01.497Z,71.55
2023-11-15T10:33:33.111Z,71.20
2023-11-15T10:36:17.632Z,75.34
2023-11-15T10:38:49.462Z,69.74
2023-11-15T10:41:20.801Z,68.54
2023-11-15T10:43:49.852Z,67.53
2023-11-15T10:46:19.904Z,68.77
2023-11-15T10:48:50.785Z,67.56
2023-11-15T10:51:23.348Z,68.25
2023-11-15T10:53:51.458Z,68.37
2023-11-15T10:56:23.341Z,68.41
2023-11-15T10:58:52.276Z,68.98
2023-11-15T11:01:20.518Z,68.17
2023-11-15T11:03:50.540Z,67.57
2023-11-15T11:06:25.252Z,66.45
2023-11-15T11:09:03.394Z,66.02
2023-11-15T11:11:41.659Z,66.48
2023-11-15T11:14:16.909Z,67.02
2023-11-15T11:16:45.429Z,66.27
2023-11-15T11:19:15.250Z,65.70
2023-11-15T11:22:08.769Z,65.40
2023-11-15T11:24:39.752Z,66.08
2023-11-15T11:27:35.045Z,64.77
2023-11-15T11:30:21.293Z,65.16
2023-11-15T11:32:51.800Z,64.31
2023-11-15T11:35:36.051Z,63.53
2023-11-15T11:38:07.733Z,64.97
2023-11-15T11:40:40.139Z,63.26
2023-11-15T11:43:31.114Z,63.07
2023-11-15T11:46:13.178Z,61.73
2023-11-15T11:48:40.862Z,62.49
2023-11-15T11:51:09.126Z,62.73
2023-11-15T11:53:39.509Z,64.12
2023-11-15T11:56:11.507Z,63.79
2023-11-15T11:58:41.222Z,63.83
2023-11-15T12:01:11.533Z,64.29
2023-11-15T12:03:42.294Z,65.08
2023-11-15T12:06:12.259Z,64.27
2023-11-15T12:08:41.210Z,63.53
2023-11-15T12:11:11.446Z,64.70
2023-11-15T12:13:49.459Z,64.58
2023-11-15T12:16:18.567Z,63.75
2023-11-15T12:18:59.074Z,63.83
2023-11-15T12:21:27.440Z,63.39
2023-11-15T12:23:55.062Z,63.04
2023-11-15T12:26:23.307Z,62.45
2023-11-15T12:28:52.787Z,61.48
2023-11-15T12:31:20.687Z,61.50
2023-11-15T12:33:48.698Z,62.61
2023-11-15T12:36:17.570Z,63.67
2023-11-15T12:38:55.960Z,64.26
2023-11-15T12:41:24.338Z,64.77
2023-11-15T12:44:04.279Z,65.43
2023-11-15T12:46:32.216Z,66.34
2023-11-15T12:49:00.217Z,67.07
2023-11-15T12:51:27.928Z,68.04
2023-11-15T12:53:57.075Z,68.81
2023-11-15T12:56:25.065Z,68.94
2023-11-15T12:58:55.410Z,69.14
2023-11-15T13:01:24.429Z,69.07
2023-11-15T13:04:00.585Z,68.86
2023-11-15T13:06:30.682Z,68.05
2023-11-15T13:09:01.510Z,68.77
2023-11-15T13:11:30.385Z,69.07
2023-11-15T13:13:58.873Z,68.54
2023-11-15T13:16:28.122Z,68.25
2023-11-15T13:18:55.995Z,68.50
2023-11-15T13:21:27.480Z,64.36
2023-11-15T13:23:55.560Z,64.28
2023-11-15T13:26:25.667Z,62.35
2023-11-15T13:28:54.006Z,62.57
2023-11-15T13:31:24.947Z,62.87
2023-11-15T13:33:56.870Z,63.23
2023-11-15T13:36:26.254Z,63.38
2023-11-15T13:38:54.261Z,63.30
2023-11-15T13:41:24.117Z,64.08
2023-11-15T13:43:53.187Z,64.76
2023-11-15T13:46:23.921Z,66.01
2023-11-15T13:48:53.777Z,62.38
2023-11-15T13:51:24.136Z,60.50
2023-11-15T13:53:52.048Z,58.11
2023-11-15T13:56:20.887Z,59.16
2023-11-15T13:58:48.928Z,61.10
2023-11-15T14:01:16.597Z,62.30
2023-11-15T14:03:44.662Z,64.13
2023-11-15T14:06:12.874Z,65.03
2023-11-15T14:11:14.448Z,65.56
2023-11-15T14:13:43.966Z,65.81
2023-11-15T14:16:12.393Z,66.12
2023-11-15T14:18:40.242Z,66.13
2023-11-15T14:21:08.562Z,66.40
2023-11-15T14:23:36.216Z,61.20
2023-11-15T14:26:05.773Z,58.44
2023-11-15T14:28:34.119Z,56.63
2023-11-15T14:31:02.653Z,55.82
2023-11-15T14:33:30.431Z,57.74
2023-11-15T14:35:58.116Z,57.50
2023-11-15T14:38:25.714Z,58.25
2023-11-15T14:40:53.851Z,59.11
2023-11-15T14:43:24.013Z,59.67
2023-11-15T14:45:51.685Z,61.19
2023-11-15T14:48:19.392Z,61.74
2023-11-15T14:50:47.881Z,60.44
2023-11-15T14:53:31.311Z,59.36
2023-11-15T14:55:59.267Z,59.82
2023-11-15T14:58:28.655Z,60.06
2023-11-15T15:00:57.191Z,61.33
2023-11-15T15:03:25.774Z,61.23
2023-11-15T15:05:53.647Z,61.80
2023-11-15T15:08:22.471Z,61.73
2023-11-15T15:10:54.311Z,61.10
2023-11-15T15:13:22.266Z,61.69
2023-11-15T15:15:51.425Z,61.95
2023-11-15T15:18:22.292Z,62.18
2023-11-15T15:20:58.838Z,62.86
2023-11-15T15:23:26.825Z,63.36
2023-11-15T15:25:55.277Z,64.23
2023-11-15T15:28:22.860Z,64.97
2023-11-15T15:30:54.388Z,65.38
2023-11-15T15:33:22.824Z,65.62
2023-11-15T15:35:51.016Z,65.79
2023-11-15T15:38:18.715Z,66.39
2023-11-15T15:40:46.376Z,66.62
2023-11-15T15:43:16.604Z,66.87
2023-11-15T15:45:45.889Z,67.25
2023-11-15T15:48:15.061Z,67.04
2023-11-15T15:50:42.714Z,67.08
2023-11-15T15:53:10.518Z,67.06
2023-11-15T15:55:38.256Z,67.29
2023-11-15T15:58:06.516Z,67.45
2023-11-15T16:00:34.204Z,67.12
2023-11-15T16:03:01.880Z,67.29
2023-11-15T16:05:30.962Z,67.56
2023-11-15T16:07:58.666Z,67.46
2023-11-15T16:10:26.314Z,67.33
2023-11-15T16:12:53.926Z,67.13
2023-11-15T16:15:21.727Z,67.03
2023-11-15T16:17:49.946Z,66.56
2023-11-15T16:20:18.361Z,66.65
2023-11-15T16:22:47.451Z,66.73
2023-11-15T16:25:15.140Z,66.69
2023-11-15T16:27:42.866Z,66.64
2023-11-15T16:30:14.142Z,66.44
2023-11-15T16:32:42.207Z,66.35
2023-11-15T16:35:10.563Z,66.29
2023-11-15T16:37:40.883Z,66.13
2023-11-15T16:40:12.667Z,65.72
2023-11-15T16:42:40.978Z,65.67
2023-11-15T16:45:09.816Z,65.71
2023-11-15T16:47:37.831Z,65.67
2023-11-15T16:50:06.181Z,65.74
2023-11-15T16:52:34.384Z,65.96
2023-11-15T16:55:02.238Z,65.91
2023-11-15T16:57:31.242Z,65.80
2023-11-15T16:59:59.859Z,65.93
2023-11-15T17:02:27.823Z,65.95
2023-11-15T17:04:55.579Z,66.30
2023-11-15T17:07:23.331Z,66.55
2023-11-15T17:09:52.449Z,66.60
2023-11-15T17:12:20.793Z,66.61
2023-11-15T17:14:49.855Z,66.60
2023-11-15T17:17:17.471Z,66.93
2023-11-15T17:19:45.841Z,67.11
2023-11-15T17:22:14.192Z,67.45
2023-11-15T17:24:41.824Z,67.47
2023-11-15T17:27:09.599Z,67.77
2023-11-15T17:29:37.559Z,68.14
2023-11-15T17:32:07.618Z,68.36
2023-11-15T17:34:35.330Z,68.32
2023-11-15T17:37:03.453Z,68.53
2023-11-15T17:39:31.183Z,68.97
2023-11-15T17:41:59.196Z,69.24
2023-11-15T17:44:26.852Z,69.78
2023-11-15T17:46:54.575Z,70.07
2023-11-15T17:49:23.537Z,70.48
2023-11-15T17:51:51.084Z,70.47
2023-11-15T17:54:19.886Z,70.59
2023-11-15T17:56:47.618Z,70.94
2023-11-15T17:59:15.464Z,71.11
2023-11-15T18:01:43.931Z,71.03
2023-11-15T18:04:15.204Z,70.98
2023-11-15T18:06:44.488Z,71.29
2023-11-15T18:09:12.854Z,71.31
2023-11-15T18:11:40.481Z,71.42
2023-11-15T18:14:08.127Z,71.75
2023-11-15T18:16:36.033Z,71.94
2023-11-15T18:19:06.317Z,72.01
2023-11-15T18:21:34.462Z,72.24
2023-11-15T18:24:03.546Z,72.43
2023-11-15T18:26:32.775Z,72.59
2023-11-15T18:29:01.920Z,72.51
2023-11-15T18:31:29.918Z,72.85
2023-11-15T18:33:59.064Z,72.70
2023-11-15T18:36:27.500Z,72.86
2023-11-15T18:38:55.663Z,72.70
2023-11-15T18:41:24.603Z,72.65
2023-11-15T18:43:53.948Z,72.49
2023-11-15T18:46:22.309Z,72.58
2023-11-15T18:48:50.062Z,72.36
2023-11-15T18:51:23.064Z,71.89
2023-11-15T18:53:51.653Z,71.32
2023-11-15T18:56:19.375Z,71.25
2023-11-15T18:58:49.886Z,71.61
2023-11-15T19:01:18.939Z,71.81
2023-11-15T19:03:48.850Z,71.99
2023-11-15T19:06:16.583Z,72.54
2023-11-15T19:08:44.175Z,72.53
2023-11-15T19:11:11.724Z,72.89
2023-11-15T19:13:41.222Z,72.89
2023-11-15T19:16:10.499Z,72.74
2023-11-15T19:18:38.289Z,72.01
2023-11-15T19:21:06.393Z,71.69
2023-11-15T19:23:34.072Z,71.18
2023-11-15T19:26:01.639Z,70.97
2023-11-15T19:28:29.252Z,73.03
2023-11-15T19:30:56.802Z,73.02
2023-11-15T19:33:25.896Z,69.10
2023-11-15T19:35:53.584Z,65.62
2023-11-15T19:38:21.188Z,64.24
2023-11-15T19:40:48.869Z,65.18
2023-11-15T19:43:16.566Z,66.20
2023-11-15T19:45:45.391Z,67.32
2023-11-15T19:48:13.246Z,67.93
2023-11-15T19:50:42.280Z,68.92
2023-11-15T19:53:10.561Z,69.23
2023-11-15T19:55:39.483Z,69.76
2023-11-15T19:58:07.063Z,70.18
2023-11-15T20:00:36.199Z,70.33
2023-11-15T20:03:04.699Z,70.43
2023-11-15T20:05:32.703Z,70.45
2023-11-15T20:08:01.611Z,70.46
2023-11-15T20:10:29.511Z,70.45
2023-11-15T20:12:59.048Z,72.74
2023-11-15T20:15:27.397Z,67.81
2023-11-15T20:17:55.087Z,64.96
2023-11-15T20:20:24.229Z,66.15
2023-11-15T20:22:53.213Z,67.27
2023-11-15T20:25:23.539Z,68.26
2023-11-15T20:27:51.109Z,68.96
2023-11-15T20:30:21.918Z,69.28
2023-11-15T20:32:50.141Z,69.70
2023-11-15T20:35:18.410Z,69.77
2023-11-15T20:37:45.994Z,70.38
2023-11-15T20:40:16.258Z,70.01
2023-11-15T20:42:47.936Z,70.37
2023-11-15T20:45:16.050Z,70.63
2023-11-15T20:47:43.904Z,70.91
2023-11-15T20:50:12.641Z,74.41
2023-11-15T20:52:40.573Z,68.96
2023-11-15T20:55:09.859Z,65.06
2023-11-15T20:57:37.843Z,66.52
2023-11-15T21:00:13.641Z,67.84
2023-11-15T21:02:41.833Z,68.68
2023-11-15T21:05:11.969Z,69.48
2023-11-15T21:07:40.098Z,69.90
2023-11-15T21:10:09.977Z,70.29
2023-11-15T21:12:37.852Z,70.67
2023-11-15T21:15:10.372Z,71.10
2023-11-15T21:17:38.544Z,70.93
2023-11-15T21:20:11.481Z,71.20
2023-11-15T21:22:40.745Z,71.29
2023-11-15T21:25:12.325Z,71.63
2023-11-15T21:27:41.017Z,71.60
2023-11-15T21:30:12.113Z,71.93
2023-11-15T21:32:41.192Z,72.09
2023-11-15T21:35:10.676Z,72.19
2023-11-15T21:37:42.707Z,72.17
2023-11-15T21:40:12.690Z,72.17
2023-11-15T21:42:40.489Z,72.29
2023-11-15T21:45:12.050Z,72.55
2023-11-15T21:47:40.387Z,72.74
2023-11-15T21:50:11.183Z,72.56
2023-11-15T21:52:38.999Z,72.72
2023-11-15T21:55:08.206Z,73.11
2023-11-15T21:57:37.292Z,73.00
2023-11-15T22:00:07.769Z,73.09
2023-11-15T22:02:37.098Z,73.13
2023-11-15T22:05:06.083Z,73.22
2023-11-15T22:07:33.698Z,72.97
2023-11-15T22:10:01.334Z,73.25
2023-11-15T22:12:29.008Z,73.37
2023-11-15T22:14:56.707Z,73.48
2023-11-15T22:17:24.304Z,73.72
2023-11-15T22:19:53.221Z,73.76
2023-11-15T22:22:20.885Z,74.59
2023-11-15T22:24:48.638Z,74.76
2023-11-15T22:27:16.314Z,75.70
2023-11-15T22:29:44.049Z,75.98
2023-11-15T22:32:11.594Z,76.35
2023-11-15T22:34:39.541Z,75.34
2023-11-15T22:37:09.825Z,75.26
2023-11-15T22:39:37.551Z,75.52
2023-11-15T22:42:05.935Z,75.15
2023-11-15T22:44:33.669Z,74.81
2023-11-15T22:47:01.204Z,74.77
2023-11-15T22:49:28.728Z,74.84
2023-11-15T22:51:56.326Z,74.74
2023-11-15T22:54:25.362Z,75.19
2023-11-15T22:56:53.268Z,75.96
2023-11-15T22:59:20.846Z,75.50
2023-11-15T23:01:49.527Z,75.12
2023-11-15T23:04:18.911Z,74.67
2023-11-15T23:06:46.860Z,74.52
2023-11-15T23:09:15.900Z,74.49
2023-11-15T23:11:44.845Z,74.28
2023-11-15T23:14:12.422Z,74.45
2023-11-15T23:16:41.360Z,74.23
2023-11-15T23:19:10.490Z,74.58
2023-11-15T23:21:41.352Z,74.56
2023-11-15T23:24:13.090Z,74.71
2023-11-15T23:26:40.681Z,74.71
2023-11-15T23:29:11.270Z,74.89
2023-11-15T23:31:38.861Z,75.13
2023-11-15T23:34:07.817Z,74.98
2023-11-15T23:36:36.199Z,75.29
2023-11-15T23:39:06.208Z,75.01
2023-11-15T23:41:34.422Z,75.05
2023-11-15T23:44:03.838Z,76.83
2023-11-15T23:46:32.788Z,76.74
2023-11-15T23:49:00.807Z,76.14
2023-11-15T23:51:28.400Z,75.69
2023-11-15T23:53:55.950Z,76.69
2023-11-15T23:56:23.535Z,76.22
2023-11-15T23:58:51.173Z,75.65
